aviador You're here:

KUUU Decoded Metar

NEWPORT in RI, USA
Report Time2018-04-26 12:53:00
UTC Time2018-04-26 13:15:29
Flight Rules lifr LIFR
Wind220° at 05 kt
W.Decomp.*RWY 22: 4.8 kt HW 1.3 kt RCW
RWY 16: 1.3 kt HW 4.8 kt RCW
W.Rank220° ranks 22
Current wind is below 220° avg. (6.7)
Visibility402 m
Phenomena:Fog
Clouds:N/A
Ceiling200 ft
Temp10°C (ISA -5)
Dew Point10°C (100% RH)
AAT8.2°C
QNH1003 hPa
Density Alt115 ft
Elevation167 ft
Report Wrong Elevation
Raw Report
KUUU 261253Z AUTO 22005KT 1/4SM FG VV002 10/10 A2961 RMK AO2
SLP025 T01000100=

Extra information for KUUU:More info

Metar Taf Metar & Taf Last 4 Metars F.Rules Stats Wind Profile Meteogram Temp Stats Airport Information Weather charts Add Link Nearby VenuesMetar ALERT Operation Metar Decoded Social comments

AIRNAV info for KUUU